sensor_id;sensor_type;location;lat;lon;timestamp;temperature;humidity
29803;DHT22;16702;50.898;4.662;2024-03-08T00:02:43;8.10;99.90
29803;DHT22;16702;50.898;4.662;2024-03-08T00:05:35;8.10;99.90
29803;DHT22;16702;50.898;4.662;2024-03-08T00:08:19;8.00;99.90
29803;DHT22;16702;50.898;4.662;2024-03-08T00:10:51;8.10;99.90
29803;DHT22;16702;50.898;4.662;2024-03-08T00:13:52;8.10;99.90
29803;DHT22;16702;50.898;4.662;2024-03-08T00:16:33;8.00;99.90
29803;DHT22;16702;50.898;4.662;2024-03-08T00:19:10;8.00;99.90
29803;DHT22;16702;50.898;4.662;2024-03-08T00:22:19;8.00;99.90
29803;DHT22;16702;50.898;4.662;2024-03-08T00:25:09;8.00;99.90
29803;DHT22;16702;50.898;4.662;2024-03-08T00:28:05;8.00;99.90
29803;DHT22;16702;50.898;4.662;2024-03-08T00:30:44;8.00;99.90
29803;DHT22;16702;50.898;4.662;2024-03-08T00:33:26;7.80;99.90
29803;DHT22;16702;50.898;4.662;2024-03-08T00:36:01;7.90;99.90
29803;DHT22;16702;50.898;4.662;2024-03-08T00:38:44;7.90;99.90
29803;DHT22;16702;50.898;4.662;2024-03-08T00:41:26;7.90;99.90
29803;DHT22;16702;50.898;4.662;2024-03-08T00:44:09;7.90;99.90
29803;DHT22;16702;50.898;4.662;2024-03-08T00:47:16;7.90;99.90
29803;DHT22;16702;50.898;4.662;2024-03-08T00:50:09;7.90;99.90
29803;DHT22;16702;50.898;4.662;2024-03-08T00:52:58;7.90;99.90
29803;DHT22;16702;50.898;4.662;2024-03-08T00:55:40;7.90;99.90
29803;DHT22;16702;50.898;4.662;2024-03-08T00:58:19;7.90;99.90
29803;DHT22;16702;50.898;4.662;2024-03-08T01:01:00;7.90;99.90
29803;DHT22;16702;50.898;4.662;2024-03-08T01:03:43;7.90;99.90
29803;DHT22;16702;50.898;4.662;2024-03-08T01:06:28;7.90;99.90
29803;DHT22;16702;50.898;4.662;2024-03-08T01:09:28;7.90;99.90
29803;DHT22;16702;50.898;4.662;2024-03-08T01:12:18;7.80;99.90
29803;DHT22;16702;50.898;4.662;2024-03-08T01:15:18;7.80;99.90
29803;DHT22;16702;50.898;4.662;2024-03-08T01:18:36;7.80;99.90
29803;DHT22;16702;50.898;4.662;2024-03-08T01:21:14;7.70;99.90
29803;DHT22;16702;50.898;4.662;2024-03-08T01:24:07;7.70;99.90
29803;DHT22;16702;50.898;4.662;2024-03-08T01:27:03;7.60;99.90
29803;DHT22;16702;50.898;4.662;2024-03-08T01:30:09;7.70;99.90
29803;DHT22;16702;50.898;4.662;2024-03-08T01:32:54;7.50;99.90
29803;DHT22;16702;50.898;4.662;2024-03-08T01:35:38;7.60;99.90
29803;DHT22;16702;50.898;4.662;2024-03-08T01:38:15;7.50;99.90
29803;DHT22;16702;50.898;4.662;2024-03-08T01:41:11;7.60;99.90
29803;DHT22;16702;50.898;4.662;2024-03-08T01:45:07;7.60;99.90
29803;DHT22;16702;50.898;4.662;2024-03-08T01:47:34;7.50;99.90
29803;DHT22;16702;50.898;4.662;2024-03-08T01:50:22;7.50;99.90
29803;DHT22;16702;50.898;4.662;2024-03-08T01:53:01;7.60;99.90
29803;DHT22;16702;50.898;4.662;2024-03-08T01:55:51;7.50;99.90
29803;DHT22;16702;50.898;4.662;2024-03-08T01:58:30;7.60;99.90
29803;DHT22;16702;50.898;4.662;2024-03-08T02:01:33;7.40;99.90
29803;DHT22;16702;50.898;4.662;2024-03-08T02:04:28;7.50;99.90
29803;DHT22;16702;50.898;4.662;2024-03-08T02:07:04;7.40;99.90
29803;DHT22;16702;50.898;4.662;2024-03-08T02:09:50;7.40;99.90
29803;DHT22;16702;50.898;4.662;2024-03-08T02:12:27;7.30;99.90
29803;DHT22;16702;50.898;4.662;2024-03-08T02:15:06;7.40;99.90
29803;DHT22;16702;50.898;4.662;2024-03-08T02:17:41;7.30;99.90
29803;DHT22;16702;50.898;4.662;2024-03-08T02:20:34;7.30;99.90
29803;DHT22;16702;50.898;4.662;2024-03-08T02:23:14;7.30;99.90
29803;DHT22;16702;50.898;4.662;2024-03-08T02:26:23;7.40;99.90
29803;DHT22;16702;50.898;4.662;2024-03-08T02:29:22;7.20;99.90
29803;DHT22;16702;50.898;4.662;2024-03-08T02:34:41;7.20;99.90
29803;DHT22;16702;50.898;4.662;2024-03-08T02:35:10;7.20;99.90
29803;DHT22;16702;50.898;4.662;2024-03-08T02:38:09;7.20;99.90
29803;DHT22;16702;50.898;4.662;2024-03-08T02:40:52;7.20;99.90
29803;DHT22;16702;50.898;4.662;2024-03-08T02:43:46;7.20;99.90
29803;DHT22;16702;50.898;4.662;2024-03-08T02:46:41;7.20;99.90
29803;DHT22;16702;50.898;4.662;2024-03-08T02:49:17;7.10;99.90
29803;DHT22;16702;50.898;4.662;2024-03-08T02:51:50;7.10;99.90
29803;DHT22;16702;50.898;4.662;2024-03-08T02:54:59;7.00;99.90
29803;DHT22;16702;50.898;4.662;2024-03-08T02:57:41;7.10;99.90
29803;DHT22;16702;50.898;4.662;2024-03-08T03:00:36;7.00;99.90
29803;DHT22;16702;50.898;4.662;2024-03-08T03:03:31;7.00;99.90
29803;DHT22;16702;50.898;4.662;2024-03-08T03:06:06;7.00;99.90
29803;DHT22;16702;50.898;4.662;2024-03-08T03:08:57;7.00;99.90
29803;DHT22;16702;50.898;4.662;2024-03-08T03:11:33;7.10;99.90
29803;DHT22;16702;50.898;4.662;2024-03-08T03:14:28;6.90;99.90
29803;DHT22;16702;50.898;4.662;2024-03-08T03:17:32;7.00;99.90
29803;DHT22;16702;50.898;4.662;2024-03-08T03:20:47;7.00;99.90
29803;DHT22;16702;50.898;4.662;2024-03-08T03:23:20;7.00;99.90
29803;DHT22;16702;50.898;4.662;2024-03-08T03:26:06;7.00;99.90
29803;DHT22;16702;50.898;4.662;2024-03-08T03:28:57;6.90;99.90
29803;DHT22;16702;50.898;4.662;2024-03-08T03:31:35;6.90;99.90
29803;DHT22;16702;50.898;4.662;2024-03-08T03:34:23;6.90;99.90
29803;DHT22;16702;50.898;4.662;2024-03-08T03:37:41;6.90;99.90
29803;DHT22;16702;50.898;4.662;2024-03-08T03:40:39;6.90;99.90
29803;DHT22;16702;50.898;4.662;2024-03-08T03:43:19;6.80;99.90
29803;DHT22;16702;50.898;4.662;2024-03-08T03:46:02;7.00;99.90
29803;DHT22;16702;50.898;4.662;2024-03-08T03:48:42;6.70;99.90
29803;DHT22;16702;50.898;4.662;2024-03-08T03:51:18;6.80;99.90
29803;DHT22;16702;50.898;4.662;2024-03-08T03:53:51;6.70;99.90
29803;DHT22;16702;50.898;4.662;2024-03-08T03:56:43;6.70;99.90
29803;DHT22;16702;50.898;4.662;2024-03-08T03:59:25;6.70;99.90
29803;DHT22;16702;50.898;4.662;2024-03-08T04:02:17;6.60;99.90
29803;DHT22;16702;50.898;4.662;2024-03-08T04:05:11;6.70;99.90
29803;DHT22;16702;50.898;4.662;2024-03-08T04:07:53;6.70;99.90
29803;DHT22;16702;50.898;4.662;2024-03-08T04:10:48;6.60;99.90
29803;DHT22;16702;50.898;4.662;2024-03-08T04:13:32;6.70;99.90
29803;DHT22;16702;50.898;4.662;2024-03-08T04:16:18;6.60;99.90
29803;DHT22;16702;50.898;4.662;2024-03-08T04:18:56;6.50;99.90
29803;DHT22;16702;50.898;4.662;2024-03-08T04:21:52;6.60;99.90
29803;DHT22;16702;50.898;4.662;2024-03-08T04:24:27;6.60;99.90
29803;DHT22;16702;50.898;4.662;2024-03-08T04:27:35;6.50;99.90
29803;DHT22;16702;50.898;4.662;2024-03-08T04:30:22;6.50;99.90
29803;DHT22;16702;50.898;4.662;2024-03-08T04:33:13;6.60;99.90
29803;DHT22;16702;50.898;4.662;2024-03-08T04:35:54;6.60;99.90
29803;DHT22;16702;50.898;4.662;2024-03-08T04:38:42;6.60;99.90
29803;DHT22;16702;50.898;4.662;2024-03-08T04:41:44;6.40;99.90
29803;DHT22;16702;50.898;4.662;2024-03-08T04:44:19;6.40;99.90
29803;DHT22;16702;50.898;4.662;2024-03-08T04:47:19;6.40;99.90
29803;DHT22;16702;50.898;4.662;2024-03-08T04:50:14;6.30;99.90
29803;DHT22;16702;50.898;4.662;2024-03-08T04:53:16;6.40;99.90
29803;DHT22;16702;50.898;4.662;2024-03-08T04:55:59;6.50;99.90
29803;DHT22;16702;50.898;4.662;2024-03-08T04:58:38;6.40;99.90
29803;DHT22;16702;50.898;4.662;2024-03-08T05:01:35;6.50;99.90
29803;DHT22;16702;50.898;4.662;2024-03-08T05:04:24;6.50;99.90
29803;DHT22;16702;50.898;4.662;2024-03-08T05:06:59;6.30;99.90
29803;DHT22;16702;50.898;4.662;2024-03-08T05:09:44;6.30;99.90
29803;DHT22;16702;50.898;4.662;2024-03-08T05:12:30;6.20;99.90
29803;DHT22;16702;50.898;4.662;2024-03-08T05:15:16;6.30;99.90
29803;DHT22;16702;50.898;4.662;2024-03-08T05:18:16;6.40;99.90
29803;DHT22;16702;50.898;4.662;2024-03-08T05:21:19;6.30;99.90
29803;DHT22;16702;50.898;4.662;2024-03-08T05:24:08;6.30;99.90
29803;DHT22;16702;50.898;4.662;2024-03-08T05:26:50;6.20;99.90
29803;DHT22;16702;50.898;4.662;2024-03-08T05:29:34;6.20;99.90
29803;DHT22;16702;50.898;4.662;2024-03-08T05:33:04;6.20;99.90
29803;DHT22;16702;50.898;4.662;2024-03-08T05:35:39;6.10;99.90
29803;DHT22;16702;50.898;4.662;2024-03-08T05:38:14;6.20;99.90
29803;DHT22;16702;50.898;4.662;2024-03-08T05:41:03;6.30;99.90
29803;DHT22;16702;50.898;4.662;2024-03-08T05:43:50;6.20;99.90
29803;DHT22;16702;50.898;4.662;2024-03-08T05:47:05;6.20;99.90
29803;DHT22;16702;50.898;4.662;2024-03-08T05:49:49;6.10;99.90
29803;DHT22;16702;50.898;4.662;2024-03-08T05:53:25;6.10;99.90
29803;DHT22;16702;50.898;4.662;2024-03-08T05:55:28;6.10;99.90
29803;DHT22;16702;50.898;4.662;2024-03-08T05:58:23;6.10;99.90
29803;DHT22;16702;50.898;4.662;2024-03-08T06:01:16;6.00;99.90
29803;DHT22;16702;50.898;4.662;2024-03-08T06:03:51;6.10;99.90
29803;DHT22;16702;50.898;4.662;2024-03-08T06:06:26;6.00;99.90
29803;DHT22;16702;50.898;4.662;2024-03-08T06:09:01;6.00;99.90
29803;DHT22;16702;50.898;4.662;2024-03-08T06:13:01;6.00;99.90
29803;DHT22;16702;50.898;4.662;2024-03-08T06:15:02;5.90;99.90
29803;DHT22;16702;50.898;4.662;2024-03-08T06:17:47;6.00;99.90
29803;DHT22;16702;50.898;4.662;2024-03-08T06:20:38;6.00;99.90
29803;DHT22;16702;50.898;4.662;2024-03-08T06:23:39;6.10;99.90
29803;DHT22;16702;50.898;4.662;2024-03-08T06:26:19;5.90;99.90
29803;DHT22;16702;50.898;4.662;2024-03-08T06:29:14;5.90;99.90
29803;DHT22;16702;50.898;4.662;2024-03-08T06:32:18;5.90;99.90
29803;DHT22;16702;50.898;4.662;2024-03-08T06:35:05;6.00;99.90
29803;DHT22;16702;50.898;4.662;2024-03-08T06:37:41;5.80;99.90
29803;DHT22;16702;50.898;4.662;2024-03-08T06:40:32;5.80;99.90
29803;DHT22;16702;50.898;4.662;2024-03-08T06:43:16;5.80;99.90
29803;DHT22;16702;50.898;4.662;2024-03-08T06:46:05;5.90;99.90
29803;DHT22;16702;50.898;4.662;2024-03-08T06:48:51;5.80;99.90
29803;DHT22;16702;50.898;4.662;2024-03-08T06:51:32;5.80;99.90
29803;DHT22;16702;50.898;4.662;2024-03-08T06:54:23;5.90;99.90
29803;DHT22;16702;50.898;4.662;2024-03-08T06:57:03;5.90;99.90
29803;DHT22;16702;50.898;4.662;2024-03-08T06:59:41;5.80;99.90
29803;DHT22;16702;50.898;4.662;2024-03-08T07:02:39;5.80;99.90
29803;DHT22;16702;50.898;4.662;2024-03-08T07:05:40;5.80;99.90
29803;DHT22;16702;50.898;4.662;2024-03-08T07:10:03;5.80;99.90
29803;DHT22;16702;50.898;4.662;2024-03-08T07:11:48;5.90;99.90
29803;DHT22;16702;50.898;4.662;2024-03-08T07:15:03;5.90;99.90
29803;DHT22;16702;50.898;4.662;2024-03-08T07:17:21;5.80;99.90
29803;DHT22;16702;50.898;4.662;2024-03-08T07:19:54;5.90;99.90
29803;DHT22;16702;50.898;4.662;2024-03-08T07:22:48;5.90;99.90
29803;DHT22;16702;50.898;4.662;2024-03-08T07:25:28;5.80;99.90
29803;DHT22;16702;50.898;4.662;2024-03-08T07:28:23;5.80;99.90
29803;DHT22;16702;50.898;4.662;2024-03-08T07:31:15;5.90;99.90
29803;DHT22;16702;50.898;4.662;2024-03-08T07:33:58;6.10;99.90
29803;DHT22;16702;50.898;4.662;2024-03-08T07:36:34;5.90;99.90
29803;DHT22;16702;50.898;4.662;2024-03-08T07:39:27;6.00;99.90
29803;DHT22;16702;50.898;4.662;2024-03-08T07:42:13;6.00;99.90
29803;DHT22;16702;50.898;4.662;2024-03-08T07:45:01;6.00;99.90
29803;DHT22;16702;50.898;4.662;2024-03-08T07:47:54;5.90;99.90
29803;DHT22;16702;50.898;4.662;2024-03-08T07:51:07;6.00;99.90
29803;DHT22;16702;50.898;4.662;2024-03-08T07:53:53;6.10;99.90
29803;DHT22;16702;50.898;4.662;2024-03-08T07:57:02;6.00;99.90
29803;DHT22;16702;50.898;4.662;2024-03-08T07:59:49;6.10;99.90
29803;DHT22;16702;50.898;4.662;2024-03-08T08:02:35;6.10;99.90
29803;DHT22;16702;50.898;4.662;2024-03-08T08:05:08;6.20;99.90
29803;DHT22;16702;50.898;4.662;2024-03-08T08:08:09;6.20;99.90
29803;DHT22;16702;50.898;4.662;2024-03-08T08:10:52;6.30;99.90
29803;DHT22;16702;50.898;4.662;2024-03-08T08:13:25;6.30;99.90
29803;DHT22;16702;50.898;4.662;2024-03-08T08:16:04;6.30;99.90
29803;DHT22;16702;50.898;4.662;2024-03-08T08:18:45;6.40;99.90
29803;DHT22;16702;50.898;4.662;2024-03-08T08:21:22;6.40;99.90
29803;DHT22;16702;50.898;4.662;2024-03-08T08:23:57;6.40;99.90
29803;DHT22;16702;50.898;4.662;2024-03-08T08:26:33;6.50;99.90
29803;DHT22;16702;50.898;4.662;2024-03-08T08:29:21;6.50;99.90
29803;DHT22;16702;50.898;4.662;2024-03-08T08:32:19;6.50;99.90
29803;DHT22;16702;50.898;4.662;2024-03-08T08:35:22;6.50;99.90
29803;DHT22;16702;50.898;4.662;2024-03-08T08:38:11;6.60;99.90
29803;DHT22;16702;50.898;4.662;2024-03-08T08:40:55;6.70;99.90
29803;DHT22;16702;50.898;4.662;2024-03-08T08:43:42;6.60;99.90
29803;DHT22;16702;50.898;4.662;2024-03-08T08:46:32;6.70;99.90
29803;DHT22;16702;50.898;4.662;2024-03-08T08:49:11;6.80;99.90
29803;DHT22;16702;50.898;4.662;2024-03-08T08:52:52;6.90;99.90
29803;DHT22;16702;50.898;4.662;2024-03-08T08:55:16;6.80;99.90
29803;DHT22;16702;50.898;4.662;2024-03-08T08:58:20;6.90;99.90
29803;DHT22;16702;50.898;4.662;2024-03-08T09:01:21;7.00;99.90
29803;DHT22;16702;50.898;4.662;2024-03-08T09:04:16;7.00;99.90
29803;DHT22;16702;50.898;4.662;2024-03-08T09:07:07;7.10;99.90
29803;DHT22;16702;50.898;4.662;2024-03-08T09:10:09;7.00;99.90
29803;DHT22;16702;50.898;4.662;2024-03-08T09:12:45;7.20;99.90
29803;DHT22;16702;50.898;4.662;2024-03-08T09:15:23;7.10;99.90
29803;DHT22;16702;50.898;4.662;2024-03-08T09:17:59;7.10;99.90
29803;DHT22;16702;50.898;4.662;2024-03-08T09:20:46;7.20;99.90
29803;DHT22;16702;50.898;4.662;2024-03-08T09:23:50;7.30;99.90
29803;DHT22;16702;50.898;4.662;2024-03-08T09:26:34;7.30;99.90
29803;DHT22;16702;50.898;4.662;2024-03-08T09:29:11;7.40;99.90
29803;DHT22;16702;50.898;4.662;2024-03-08T09:32:00;7.40;99.90
29803;DHT22;16702;50.898;4.662;2024-03-08T09:35:00;7.50;99.90
29803;DHT22;16702;50.898;4.662;2024-03-08T09:37:50;7.70;99.90
29803;DHT22;16702;50.898;4.662;2024-03-08T09:40:45;7.70;99.90
29803;DHT22;16702;50.898;4.662;2024-03-08T09:43:27;7.80;99.90
29803;DHT22;16702;50.898;4.662;2024-03-08T09:46:12;7.80;99.90
29803;DHT22;16702;50.898;4.662;2024-03-08T09:49:16;7.80;99.90
29803;DHT22;16702;50.898;4.662;2024-03-08T09:52:16;7.90;99.90
29803;DHT22;16702;50.898;4.662;2024-03-08T09:54:55;8.00;99.90
29803;DHT22;16702;50.898;4.662;2024-03-08T09:57:33;8.00;99.90
29803;DHT22;16702;50.898;4.662;2024-03-08T10:00:15;8.00;99.90
29803;DHT22;16702;50.898;4.662;2024-03-08T10:03:48;8.20;99.90
29803;DHT22;16702;50.898;4.662;2024-03-08T10:06:04;8.30;99.90
29803;DHT22;16702;50.898;4.662;2024-03-08T10:08:59;8.40;99.90
29803;DHT22;16702;50.898;4.662;2024-03-08T10:11:56;8.40;99.90
29803;DHT22;16702;50.898;4.662;2024-03-08T10:14:42;8.50;99.90
29803;DHT22;16702;50.898;4.662;2024-03-08T10:17:15;8.60;99.90
29803;DHT22;16702;50.898;4.662;2024-03-08T10:19:59;8.70;99.90
29803;DHT22;16702;50.898;4.662;2024-03-08T10:23:17;8.70;99.90
29803;DHT22;16702;50.898;4.662;2024-03-08T10:25:49;8.90;99.90
29803;DHT22;16702;50.898;4.662;2024-03-08T10:28:26;9.00;99.90
29803;DHT22;16702;50.898;4.662;2024-03-08T10:31:08;9.00;99.90
29803;DHT22;16702;50.898;4.662;2024-03-08T10:34:09;9.00;99.90
29803;DHT22;16702;50.898;4.662;2024-03-08T10:36:46;9.00;99.90
29803;DHT22;16702;50.898;4.662;2024-03-08T10:39:25;9.10;99.90
29803;DHT22;16702;50.898;4.662;2024-03-08T10:42:12;9.10;99.90
29803;DHT22;16702;50.898;4.662;2024-03-08T10:45:07;9.10;99.90
29803;DHT22;16702;50.898;4.662;2024-03-08T10:48:13;9.30;99.90
29803;DHT22;16702;50.898;4.662;2024-03-08T10:51:04;9.50;99.90
29803;DHT22;16702;50.898;4.662;2024-03-08T10:53:47;9.60;99.90
29803;DHT22;16702;50.898;4.662;2024-03-08T10:56:23;9.50;99.90
29803;DHT22;16702;50.898;4.662;2024-03-08T10:59:07;9.50;99.90
29803;DHT22;16702;50.898;4.662;2024-03-08T11:01:56;9.60;99.90
29803;DHT22;16702;50.898;4.662;2024-03-08T11:04:39;9.70;99.90
29803;DHT22;16702;50.898;4.662;2024-03-08T11:07:25;9.90;99.90
29803;DHT22;16702;50.898;4.662;2024-03-08T11:10:37;10.00;99.90
29803;DHT22;16702;50.898;4.662;2024-03-08T11:13:37;9.80;99.90
29803;DHT22;16702;50.898;4.662;2024-03-08T11:16:37;10.00;99.90
29803;DHT22;16702;50.898;4.662;2024-03-08T11:19:33;10.10;99.90
29803;DHT22;16702;50.898;4.662;2024-03-08T11:22:27;10.20;99.90
29803;DHT22;16702;50.898;4.662;2024-03-08T11:25:04;10.20;99.90
29803;DHT22;16702;50.898;4.662;2024-03-08T11:27:53;10.30;99.90
29803;DHT22;16702;50.898;4.662;2024-03-08T11:30:46;10.30;99.90
29803;DHT22;16702;50.898;4.662;2024-03-08T11:33:46;10.50;99.90
29803;DHT22;16702;50.898;4.662;2024-03-08T11:36:50;10.50;99.90
29803;DHT22;16702;50.898;4.662;2024-03-08T11:39:31;10.60;99.90
29803;DHT22;16702;50.898;4.662;2024-03-08T11:42:15;10.60;99.90
29803;DHT22;16702;50.898;4.662;2024-03-08T11:45:27;10.60;99.90
29803;DHT22;16702;50.898;4.662;2024-03-08T11:48:22;10.80;99.90
29803;DHT22;16702;50.898;4.662;2024-03-08T11:51:25;10.80;99.90
29803;DHT22;16702;50.898;4.662;2024-03-08T11:54:06;11.00;99.90
29803;DHT22;16702;50.898;4.662;2024-03-08T11:57:12;11.00;99.90
29803;DHT22;16702;50.898;4.662;2024-03-08T11:59:50;11.10;99.90
29803;DHT22;16702;50.898;4.662;2024-03-08T12:02:37;11.10;99.90
29803;DHT22;16702;50.898;4.662;2024-03-08T12:05:24;11.20;99.90
29803;DHT22;16702;50.898;4.662;2024-03-08T12:08:33;11.10;99.90
29803;DHT22;16702;50.898;4.662;2024-03-08T12:11:11;11.30;99.90
29803;DHT22;16702;50.898;4.662;2024-03-08T12:14:19;11.40;99.90
29803;DHT22;16702;50.898;4.662;2024-03-08T12:17:10;11.40;99.90
29803;DHT22;16702;50.898;4.662;2024-03-08T12:19:46;11.50;99.90
29803;DHT22;16702;50.898;4.662;2024-03-08T12:22:43;11.50;99.90
29803;DHT22;16702;50.898;4.662;2024-03-08T12:25:34;11.50;99.90
29803;DHT22;16702;50.898;4.662;2024-03-08T12:28:18;11.70;99.90
29803;DHT22;16702;50.898;4.662;2024-03-08T12:31:23;11.80;99.90
29803;DHT22;16702;50.898;4.662;2024-03-08T12:34:07;11.80;99.90
29803;DHT22;16702;50.898;4.662;2024-03-08T12:36:56;11.80;99.90
29803;DHT22;16702;50.898;4.662;2024-03-08T12:39:41;11.90;99.90
29803;DHT22;16702;50.898;4.662;2024-03-08T12:42:22;12.00;99.90
29803;DHT22;16702;50.898;4.662;2024-03-08T12:45:01;12.10;99.90
29803;DHT22;16702;50.898;4.662;2024-03-08T12:47:34;12.20;99.90
29803;DHT22;16702;50.898;4.662;2024-03-08T12:50:38;12.30;99.90
29803;DHT22;16702;50.898;4.662;2024-03-08T12:53:20;12.10;99.90
29803;DHT22;16702;50.898;4.662;2024-03-08T12:55:56;12.30;99.90
29803;DHT22;16702;50.898;4.662;2024-03-08T12:58:38;12.40;99.90
29803;DHT22;16702;50.898;4.662;2024-03-08T13:01:53;12.50;99.90
29803;DHT22;16702;50.898;4.662;2024-03-08T13:04:36;12.60;99.90
29803;DHT22;16702;50.898;4.662;2024-03-08T13:07:19;12.60;99.90
29803;DHT22;16702;50.898;4.662;2024-03-08T13:10:11;12.80;99.90
29803;DHT22;16702;50.898;4.662;2024-03-08T13:12:47;12.70;99.90
29803;DHT22;16702;50.898;4.662;2024-03-08T13:15:32;12.80;99.90
29803;DHT22;16702;50.898;4.662;2024-03-08T13:18:11;12.90;99.90
29803;DHT22;16702;50.898;4.662;2024-03-08T13:21:01;12.90;99.90
29803;DHT22;16702;50.898;4.662;2024-03-08T13:23:49;12.90;99.90
29803;DHT22;16702;50.898;4.662;2024-03-08T13:26:26;13.10;99.90
29803;DHT22;16702;50.898;4.662;2024-03-08T13:29:08;13.10;99.90
29803;DHT22;16702;50.898;4.662;2024-03-08T13:31:55;13.20;99.90
29803;DHT22;16702;50.898;4.662;2024-03-08T13:34:39;13.20;99.90
29803;DHT22;16702;50.898;4.662;2024-03-08T13:37:25;13.30;99.90
29803;DHT22;16702;50.898;4.662;2024-03-08T13:40:03;13.30;99.90
29803;DHT22;16702;50.898;4.662;2024-03-08T13:43:14;13.40;99.90
29803;DHT22;16702;50.898;4.662;2024-03-08T13:45:59;13.30;99.90
29803;DHT22;16702;50.898;4.662;2024-03-08T13:48:48;13.30;99.90
29803;DHT22;16702;50.898;4.662;2024-03-08T13:51:39;13.30;99.90
29803;DHT22;16702;50.898;4.662;2024-03-08T13:54:34;13.30;99.90
29803;DHT22;16702;50.898;4.662;2024-03-08T13:57:22;13.40;99.90
29803;DHT22;16702;50.898;4.662;2024-03-08T14:00:42;13.50;99.90
29803;DHT22;16702;50.898;4.662;2024-03-08T14:03:20;13.60;99.90
29803;DHT22;16702;50.898;4.662;2024-03-08T14:05:55;13.60;99.90
29803;DHT22;16702;50.898;4.662;2024-03-08T14:08:33;13.70;99.90
29803;DHT22;16702;50.898;4.662;2024-03-08T14:11:37;13.80;99.90
29803;DHT22;16702;50.898;4.662;2024-03-08T14:14:17;13.70;99.90
29803;DHT22;16702;50.898;4.662;2024-03-08T14:17:17;13.80;99.90
29803;DHT22;16702;50.898;4.662;2024-03-08T14:20:13;13.90;99.90
29803;DHT22;16702;50.898;4.662;2024-03-08T14:22:59;13.90;99.90
29803;DHT22;16702;50.898;4.662;2024-03-08T14:25:39;13.80;99.90
29803;DHT22;16702;50.898;4.662;2024-03-08T14:28:23;13.90;99.90
29803;DHT22;16702;50.898;4.662;2024-03-08T14:31:02;13.70;99.90
29803;DHT22;16702;50.898;4.662;2024-03-08T14:33:45;13.90;99.90
29803;DHT22;16702;50.898;4.662;2024-03-08T14:36:24;14.00;99.90
29803;DHT22;16702;50.898;4.662;2024-03-08T14:39:07;14.00;99.90
29803;DHT22;16702;50.898;4.662;2024-03-08T14:42:00;14.00;99.90
29803;DHT22;16702;50.898;4.662;2024-03-08T14:44:38;13.90;99.90
29803;DHT22;16702;50.898;4.662;2024-03-08T14:47:33;14.00;99.90
29803;DHT22;16702;50.898;4.662;2024-03-08T14:50:16;13.90;99.90
29803;DHT22;16702;50.898;4.662;2024-03-08T14:53:12;13.90;99.90
29803;DHT22;16702;50.898;4.662;2024-03-08T14:55:47;14.00;99.90
29803;DHT22;16702;50.898;4.662;2024-03-08T14:58:27;13.90;99.90
29803;DHT22;16702;50.898;4.662;2024-03-08T15:01:16;14.00;99.90
29803;DHT22;16702;50.898;4.662;2024-03-08T15:03:56;13.90;99.90
29803;DHT22;16702;50.898;4.662;2024-03-08T15:06:40;13.90;99.90
29803;DHT22;16702;50.898;4.662;2024-03-08T15:09:22;13.80;99.90
29803;DHT22;16702;50.898;4.662;2024-03-08T15:12:03;13.80;99.90
29803;DHT22;16702;50.898;4.662;2024-03-08T15:14:41;13.80;99.90
29803;DHT22;16702;50.898;4.662;2024-03-08T15:17:25;13.90;99.90
29803;DHT22;16702;50.898;4.662;2024-03-08T15:19:57;13.90;99.90
29803;DHT22;16702;50.898;4.662;2024-03-08T15:22:47;13.80;99.90
29803;DHT22;16702;50.898;4.662;2024-03-08T15:25:22;13.90;99.90
29803;DHT22;16702;50.898;4.662;2024-03-08T15:28:24;13.90;99.90
29803;DHT22;16702;50.898;4.662;2024-03-08T15:31:10;13.90;99.90
29803;DHT22;16702;50.898;4.662;2024-03-08T15:33:46;13.90;99.90
29803;DHT22;16702;50.898;4.662;2024-03-08T15:36:24;13.90;99.90
29803;DHT22;16702;50.898;4.662;2024-03-08T15:39:14;13.90;99.90
29803;DHT22;16702;50.898;4.662;2024-03-08T15:42:20;13.90;99.90
29803;DHT22;16702;50.898;4.662;2024-03-08T15:45:01;14.00;99.90
29803;DHT22;16702;50.898;4.662;2024-03-08T15:47:40;13.90;99.90
29803;DHT22;16702;50.898;4.662;2024-03-08T15:50:17;13.80;99.90
29803;DHT22;16702;50.898;4.662;2024-03-08T15:53:04;13.80;99.90
29803;DHT22;16702;50.898;4.662;2024-03-08T15:55:53;14.00;99.90
29803;DHT22;16702;50.898;4.662;2024-03-08T15:58:45;14.10;99.90
29803;DHT22;16702;50.898;4.662;2024-03-08T16:01:44;14.00;99.90
29803;DHT22;16702;50.898;4.662;2024-03-08T16:05:45;14.00;99.90
29803;DHT22;16702;50.898;4.662;2024-03-08T16:07:43;13.90;99.90
29803;DHT22;16702;50.898;4.662;2024-03-08T16:10:24;13.90;99.90
29803;DHT22;16702;50.898;4.662;2024-03-08T16:13:00;14.00;99.90
29803;DHT22;16702;50.898;4.662;2024-03-08T16:15:43;14.00;99.90
29803;DHT22;16702;50.898;4.662;2024-03-08T16:18:32;13.90;99.90
29803;DHT22;16702;50.898;4.662;2024-03-08T16:21:17;13.80;99.90
29803;DHT22;16702;50.898;4.662;2024-03-08T16:24:03;13.70;99.90
29803;DHT22;16702;50.898;4.662;2024-03-08T16:26:38;13.80;99.90
29803;DHT22;16702;50.898;4.662;2024-03-08T16:29:40;13.80;99.90
29803;DHT22;16702;50.898;4.662;2024-03-08T16:32:17;13.70;99.90
29803;DHT22;16702;50.898;4.662;2024-03-08T16:34:53;13.80;99.90
29803;DHT22;16702;50.898;4.662;2024-03-08T16:37:33;13.60;99.90
29803;DHT22;16702;50.898;4.662;2024-03-08T16:40:22;13.60;99.90
29803;DHT22;16702;50.898;4.662;2024-03-08T16:43:10;13.60;99.90
29803;DHT22;16702;50.898;4.662;2024-03-08T16:45:48;13.50;99.90
29803;DHT22;16702;50.898;4.662;2024-03-08T16:48:44;13.40;99.90
29803;DHT22;16702;50.898;4.662;2024-03-08T16:51:31;13.30;99.90
29803;DHT22;16702;50.898;4.662;2024-03-08T16:54:08;13.30;99.90
29803;DHT22;16702;50.898;4.662;2024-03-08T16:56:49;13.30;99.90
29803;DHT22;16702;50.898;4.662;2024-03-08T16:59:33;13.30;99.90
29803;DHT22;16702;50.898;4.662;2024-03-08T17:02:17;13.20;99.90
29803;DHT22;16702;50.898;4.662;2024-03-08T17:05:02;13.20;99.90
29803;DHT22;16702;50.898;4.662;2024-03-08T17:08:05;13.10;99.90
29803;DHT22;16702;50.898;4.662;2024-03-08T17:10:54;13.00;99.90
29803;DHT22;16702;50.898;4.662;2024-03-08T17:13:45;13.10;99.90
29803;DHT22;16702;50.898;4.662;2024-03-08T17:16:50;13.00;99.90
29803;DHT22;16702;50.898;4.662;2024-03-08T17:19:36;12.90;99.90
29803;DHT22;16702;50.898;4.662;2024-03-08T17:22:22;12.90;99.90
29803;DHT22;16702;50.898;4.662;2024-03-08T17:25:04;12.80;99.90
29803;DHT22;16702;50.898;4.662;2024-03-08T17:27:46;12.80;99.90
29803;DHT22;16702;50.898;4.662;2024-03-08T17:30:33;12.70;99.90
29803;DHT22;16702;50.898;4.662;2024-03-08T17:33:11;12.70;99.90
29803;DHT22;16702;50.898;4.662;2024-03-08T17:35:55;12.70;99.90
29803;DHT22;16702;50.898;4.662;2024-03-08T17:38:57;12.60;99.90
29803;DHT22;16702;50.898;4.662;2024-03-08T17:41:46;12.60;99.90
29803;DHT22;16702;50.898;4.662;2024-03-08T17:44:35;12.60;99.90
29803;DHT22;16702;50.898;4.662;2024-03-08T17:47:08;12.50;99.90
29803;DHT22;16702;50.898;4.662;2024-03-08T17:50:21;12.40;99.90
29803;DHT22;16702;50.898;4.662;2024-03-08T17:53:12;12.40;99.90
29803;DHT22;16702;50.898;4.662;2024-03-08T17:55:49;12.40;99.90